Time;durP1;ratioP1;P1;durP2;ratioP2;P2;SDS_P1;SDS_P2;PMS_P1;PMS_P2;Temp;Humidity;BMP_temperature;BMP_pressure;BME280_temperature;BME280_humidity;BME280_pressure;Samples;Min_cycle;Max_cycle;Signal;HPM_P1;HPM_P2
2022/08/29 00:00:07;;;;;;;8.30;3.20;;;;;;;20.88;80.53;100707.16;2070173;28;20521;-71
2022/08/29 00:01:09;;;;;;;11.35;3.80;;;;;;;20.88;80.71;100707.94;2073477;28;20505;-71
2022/08/29 00:02:16;;;;;;;9.95;3.05;;;;;;;20.96;80.32;100714.41;2064664;28;20053;-71
2022/08/29 00:03:19;;;;;;;6.88;3.67;;;;;;;20.91;79.86;100717.41;2058516;28;20051;-72
2022/08/29 00:04:21;;;;;;;9.15;3.40;;;;;;;20.85;80.01;100714.09;2056694;28;20042;-71
2022/08/29 00:05:28;;;;;;;7.57;3.42;;;;;;;20.93;80.01;100715.09;2064859;28;20039;-70
2022/08/29 00:06:36;;;;;;;10.70;3.88;;;;;;;20.89;80.08;100715.00;2072749;28;20061;-71
2022/08/29 00:07:41;;;;;;;5.80;3.53;;;;;;;20.88;80.18;100716.16;2073276;28;20046;-72
2022/08/29 00:08:43;;;;;;;8.68;3.58;;;;;;;20.88;80.64;100713.41;2064633;28;20170;-71
2022/08/29 00:09:45;;;;;;;9.65;3.67;;;;;;;20.96;80.33;100715.19;2056796;28;20042;-71
2022/08/29 00:10:50;;;;;;;8.68;3.88;;;;;;;20.93;80.61;100718.66;2064422;28;20046;-71
2022/08/29 00:11:52;;;;;;;11.80;3.83;;;;;;;20.96;80.45;100720.66;2057123;28;20039;-71
2022/08/29 00:12:55;;;;;;;11.15;3.92;;;;;;;20.94;80.65;100713.97;2072457;28;20038;-71
2022/08/29 00:14:00;;;;;;;10.75;4.03;;;;;;;20.90;80.97;100711.13;2064728;28;20084;-71
2022/08/29 00:15:05;;;;;;;7.97;3.50;;;;;;;20.88;81.17;100716.16;2073560;28;20049;-71
2022/08/29 00:16:07;;;;;;;10.15;3.50;;;;;;;20.93;81.11;100718.66;2080470;28;20048;-71
2022/08/29 00:17:09;;;;;;;8.30;3.28;;;;;;;20.94;81.06;100714.78;2072653;28;20049;-71
2022/08/29 00:18:17;;;;;;;5.20;3.13;;;;;;;20.83;81.15;100705.44;2072244;28;20045;-73
2022/08/29 00:19:25;;;;;;;8.55;3.40;;;;;;;20.85;81.05;100703.16;2065480;28;20050;-72
2022/08/29 00:20:32;;;;;;;6.90;3.60;;;;;;;20.79;81.31;100697.13;2065366;28;20057;-72
2022/08/29 00:21:39;;;;;;;10.02;3.50;;;;;;;20.80;81.45;100695.19;2057107;28;20034;-73
2022/08/29 00:22:40;;;;;;;8.35;3.63;;;;;;;20.73;82.02;100697.72;2049144;28;20042;-73
2022/08/29 00:24:02;;;;;;;6.57;3.25;;;;;;;20.62;82.26;100694.66;2064646;28;20035;-72
2022/08/29 00:25:08;;;;;;;11.13;3.90;;;;;;;20.71;82.14;100691.78;2076962;28;20057;-72
2022/08/29 00:26:13;;;;;;;5.55;3.28;;;;;;;20.66;82.68;100690.09;2072615;28;20519;-72
2022/08/29 00:27:14;;;;;;;9.32;3.47;;;;;;;20.70;82.41;100695.66;2056347;28;20053;-72
2022/08/29 00:28:19;;;;;;;8.48;3.70;;;;;;;20.73;82.21;100698.50;2057792;28;20414;-72
2022/08/29 00:29:24;;;;;;;8.95;3.40;;;;;;;20.73;82.46;100689.53;2064678;28;20042;-73
2022/08/29 00:30:28;;;;;;;5.93;3.45;;;;;;;20.70;82.33;100696.47;2049019;28;20487;-71
2022/08/29 00:31:34;;;;;;;6.00;3.58;;;;;;;20.67;82.48;100686.22;2057923;28;20050;-72
2022/08/29 00:32:40;;;;;;;4.72;3.40;;;;;;;20.74;82.48;100689.19;2064467;28;20407;-72
2022/08/29 00:33:46;;;;;;;6.80;3.63;;;;;;;20.73;82.46;100690.31;2064610;28;20039;-72
2022/08/29 00:34:48;;;;;;;8.75;3.65;;;;;;;20.76;82.19;100688.84;2072558;28;20398;-73
2022/08/29 00:35:50;;;;;;;9.60;3.55;;;;;;;20.75;82.42;100688.03;2064407;28;20046;-73
2022/08/29 00:36:55;;;;;;;5.88;3.40;;;;;;;20.78;82.25;100689.28;2056407;28;20515;-72
2022/08/29 00:38:00;;;;;;;7.95;3.63;;;;;;;20.77;82.17;100684.94;2049061;28;20051;-73
2022/08/29 00:39:04;;;;;;;8.38;3.33;;;;;;;20.70;82.39;100687.47;2056560;28;20078;-73
2022/08/29 00:40:09;;;;;;;8.00;4.00;;;;;;;20.66;82.78;100684.63;2064546;28;20054;-72
2022/08/29 00:41:11;;;;;;;13.35;3.70;;;;;;;20.64;82.70;100680.66;2056821;28;20035;-73
2022/08/29 00:42:16;;;;;;;7.55;3.83;;;;;;;20.57;82.94;100684.75;2056244;28;20047;-73
2022/08/29 00:43:25;;;;;;;10.45;3.00;;;;;;;20.50;83.20;100687.25;2056413;28;20038;-72
2022/08/29 00:44:28;;;;;;;8.80;3.70;;;;;;;20.56;83.05;100685.13;2057683;28;20046;-71
2022/08/29 00:45:34;;;;;;;10.27;3.72;;;;;;;20.57;82.96;100682.03;2056706;28;20026;-72
2022/08/29 00:46:37;;;;;;;6.65;3.17;;;;;;;20.49;83.36;100680.19;2064492;28;20437;-72
2022/08/29 00:47:46;;;;;;;7.82;3.78;;;;;;;20.48;83.25;100686.78;2064136;28;20046;-72
2022/08/29 00:49:01;;;;;;;6.78;3.25;;;;;;;20.54;83.19;100676.44;2057772;28;20031;-72
2022/08/29 00:50:06;;;;;;;5.50;3.30;;;;;;;20.59;83.30;100674.28;2056326;28;20034;-72
2022/08/29 00:51:14;;;;;;;8.13;3.60;;;;;;;20.59;82.98;100674.28;2057604;28;20050;-72
2022/08/29 00:52:32;;;;;;;5.18;3.30;;;;;;;20.54;83.21;100671.78;2072876;28;20616;-72
2022/08/29 00:53:39;;;;;;;10.18;3.45;;;;;;;20.49;83.18;100679.38;2072132;28;20061;-72
2022/08/29 00:54:46;;;;;;;9.40;3.85;;;;;;;20.37;83.66;100670.06;2068642;28;20034;-72
2022/08/29 00:55:49;;;;;;;6.47;3.72;;;;;;;20.40;83.82;100668.59;2068084;28;20430;-72
2022/08/29 00:56:54;;;;;;;7.60;3.65;;;;;;;20.39;84.03;100669.72;2065431;28;20046;-72
2022/08/29 00:58:08;;;;;;;8.75;3.30;;;;;;;20.30;84.45;100669.84;2066243;28;20533;-72
2022/08/29 00:59:17;;;;;;;5.55;3.20;;;;;;;20.31;84.38;100667.91;2072194;28;20038;-72
2022/08/29 01:00:24;;;;;;;9.18;3.67;;;;;;;20.26;84.27;100662.66;2056179;28;20034;-72
2022/08/29 01:01:26;;;;;;;5.60;3.80;;;;;;;20.29;84.37;100664.72;2053702;28;20234;-71
2022/08/29 01:02:33;;;;;;;6.18;3.45;;;;;;;20.25;84.48;100670.06;2057084;28;20830;-72
2022/08/29 01:03:38;;;;;;;11.85;3.70;;;;;;;20.26;84.53;100665.38;2056392;28;20045;-72
2022/08/29 01:04:44;;;;;;;7.45;3.53;;;;;;;20.21;84.89;100660.16;2064739;28;20049;-72
2022/08/29 01:05:46;;;;;;;7.93;3.38;;;;;;;20.22;84.75;100656.28;2064166;28;20049;-73
2022/08/29 01:06:48;;;;;;;8.82;3.63;;;;;;;20.11;84.99;100664.94;2056354;28;20054;-72
2022/08/29 01:07:50;;;;;;;6.95;3.58;;;;;;;20.00;85.50;100647.41;2072189;28;20449;-72
2022/08/29 01:08:52;;;;;;;7.28;3.47;;;;;;;19.99;85.54;100645.81;2079518;28;20057;-72
2022/08/29 01:09:59;;;;;;;7.03;3.70;;;;;;;20.01;85.62;100659.91;2064179;28;20046;-72
2022/08/29 01:12:26;;;;;;;8.07;3.30;;;;;;;19.95;85.72;100653.06;2065266;28;20053;-71
2022/08/29 01:13:36;;;;;;;7.18;3.60;;;;;;;19.84;86.41;100646.47;2063993;28;20042;-71
2022/08/29 01:14:51;;;;;;;7.32;3.50;;;;;;;19.91;86.43;100649.44;2058024;28;20053;-72
2022/08/29 01:15:54;;;;;;;7.57;3.40;;;;;;;19.97;86.43;100645.34;2081882;28;20057;-70
2022/08/29 01:16:58;;;;;;;9.93;3.40;;;;;;;20.02;86.20;100639.69;2071875;28;20033;-69
2022/08/29 01:18:07;;;;;;;8.85;3.42;;;;;;;19.94;86.14;100640.56;2057659;28;20046;-71
2022/08/29 01:19:40;;;;;;;7.82;3.33;;;;;;;19.79;86.59;100642.03;2064065;28;20042;-71
2022/08/29 01:20:59;;;;;;;7.80;3.17;;;;;;;19.87;86.55;100632.16;2064562;28;20034;-71
2022/08/29 01:22:19;;;;;;;11.10;3.28;;;;;;;19.82;86.61;100635.91;2064717;28;20042;-72
2022/08/29 01:23:46;;;;;;;8.25;3.45;;;;;;;19.85;86.40;100624.31;2071738;28;20048;-72
2022/08/29 01:24:49;;;;;;;9.77;3.60;;;;;;;19.88;86.16;100634.53;2069072;28;20296;-71
2022/08/29 01:25:55;;;;;;;8.50;3.50;;;;;;;19.93;86.17;100624.56;2063908;28;20038;-72
2022/08/29 01:26:58;;;;;;;9.65;3.33;;;;;;;19.92;86.00;100623.75;2056663;28;20054;-70
2022/08/29 01:28:14;;;;;;;12.02;3.67;;;;;;;20.00;85.75;100624.78;2063869;28;20063;-73
2022/08/29 01:29:18;;;;;;;10.00;4.38;;;;;;;20.02;85.65;100628.78;2070163;28;20045;-72
2022/08/29 01:30:22;;;;;;;9.88;3.00;;;;;;;19.97;85.64;100628.97;2071929;28;20038;-72
2022/08/29 01:31:37;;;;;;;6.95;3.15;;;;;;;19.97;85.41;100628.97;2063934;28;20049;-72
2022/08/29 01:32:39;;;;;;;9.10;3.17;;;;;;;19.96;85.30;100632.84;2057603;28;20037;-71
2022/08/29 01:33:55;;;;;;;7.90;3.30;;;;;;;19.96;85.49;100630.13;2068325;28;20347;-72
2022/08/29 01:35:03;;;;;;;9.02;3.33;;;;;;;19.95;85.27;100628.50;2079747;28;20052;-72
2022/08/29 01:36:24;;;;;;;6.70;3.05;;;;;;;19.96;85.39;100632.06;2078070;28;20056;-72
2022/08/29 01:37:30;;;;;;;8.25;3.05;;;;;;;19.91;85.43;100639.31;2071785;28;20033;-72
2022/08/29 01:38:33;;;;;;;6.78;3.20;;;;;;;19.96;85.24;100629.34;2072131;28;20097;-72
2022/08/29 01:39:44;;;;;;;6.38;3.00;;;;;;;19.92;85.28;100642.84;2079966;28;20491;-72
2022/08/29 01:40:47;;;;;;;9.43;3.00;;;;;;;19.98;85.38;100636.03;2063821;28;20042;-72
2022/08/29 01:41:50;;;;;;;8.63;3.20;;;;;;;19.94;85.39;100626.13;2064205;28;20055;-72
2022/08/29 01:42:53;;;;;;;7.97;2.95;;;;;;;19.95;85.40;100633.97;2063771;28;20391;-72
2022/08/29 01:43:55;;;;;;;11.00;3.85;;;;;;;20.00;85.13;100631.03;2055936;28;20422;-72
2022/08/29 01:45:00;;;;;;;8.68;3.45;;;;;;;20.01;85.12;100635.34;2064709;28;20121;-72
2022/08/29 01:46:04;;;;;;;8.63;3.03;;;;;;;20.02;84.95;100630.69;2072017;28;20041;-73
2022/08/29 01:47:07;;;;;;;7.10;3.40;;;;;;;19.99;84.94;100637.63;2064045;28;20544;-72
2022/08/29 01:48:09;;;;;;;6.18;3.42;;;;;;;19.99;85.01;100636.84;2063885;28;20038;-71
2022/08/29 01:49:12;;;;;;;7.85;3.72;;;;;;;19.93;85.05;100630.81;2063871;28;20045;-72
2022/08/29 01:50:16;;;;;;;9.65;3.45;;;;;;;19.95;85.02;100635.91;2071849;28;20033;-71
2022/08/29 01:51:19;;;;;;;10.05;3.58;;;;;;;19.97;85.13;100631.72;2063448;28;20042;-71
2022/08/29 01:52:21;;;;;;;7.75;2.88;;;;;;;20.00;84.93;100632.97;2055910;28;20459;-72
2022/08/29 01:53:23;;;;;;;12.02;3.00;;;;;;;19.97;84.95;100637.16;2063532;28;20053;-72
2022/08/29 01:54:33;;;;;;;6.95;3.00;;;;;;;19.93;85.04;100632.75;2063542;28;20050;-71
2022/08/29 01:55:35;;;;;;;7.65;3.10;;;;;;;19.90;84.94;100635.00;2065209;28;20038;-72
2022/08/29 01:56:40;;;;;;;7.43;3.30;;;;;;;19.89;84.90;100629.88;2055730;28;20042;-72
2022/08/29 01:57:43;;;;;;;9.40;2.80;;;;;;;19.79;85.19;100628.38;2048082;28;20395;-71
2022/08/29 01:58:49;;;;;;;8.43;3.70;;;;;;;19.82;85.36;100629.66;2057852;28;20069;-71
2022/08/29 01:59:51;;;;;;;7.47;3.10;;;;;;;19.79;85.59;100627.59;2072195;28;20110;-72
2022/08/29 02:00:53;;;;;;;7.63;2.78;;;;;;;19.85;85.51;100631.69;2072369;28;20048;-72
2022/08/29 02:01:59;;;;;;;8.15;2.95;;;;;;;19.90;85.11;100626.81;2077130;28;20037;-72
2022/08/29 02:03:04;;;;;;;11.70;3.50;;;;;;;19.91;84.91;100627.63;2071673;28;20045;-71
2022/08/29 02:04:10;;;;;;;8.25;3.30;;;;;;;19.93;84.98;100628.09;2072296;28;20042;-72
2022/08/29 02:05:14;;;;;;;5.43;2.72;;;;;;;19.92;84.87;100623.75;2071769;28;20374;-72
2022/08/29 02:06:18;;;;;;;7.95;2.83;;;;;;;19.92;85.08;100623.75;2072289;28;20041;-73
2022/08/29 02:07:24;;;;;;;7.28;3.05;;;;;;;19.93;84.67;100630.00;2079965;28;20033;-72
2022/08/29 02:08:25;;;;;;;9.40;3.05;;;;;;;19.93;84.58;100625.34;2063525;28;20038;-73
2022/08/29 02:09:28;;;;;;;8.75;2.63;;;;;;;19.92;84.63;100631.94;2063627;28;20090;-72
2022/08/29 02:10:31;;;;;;;11.15;2.95;;;;;;;19.84;84.70;100621.94;2055625;28;20031;-71
2022/08/29 02:11:35;;;;;;;10.23;3.83;;;;;;;19.82;84.67;100624.19;2055041;28;20042;-72
2022/08/29 02:12:37;;;;;;;6.68;2.75;;;;;;;19.82;84.84;100621.47;2055946;28;20031;-72
2022/08/29 02:13:50;;;;;;;12.95;2.92;;;;;;;19.81;84.77;100617.94;2055599;28;20046;-72
2022/08/29 02:14:51;;;;;;;5.63;2.95;;;;;;;19.85;84.65;100628.97;2061188;28;20061;-72
2022/08/29 02:15:57;;;;;;;10.52;3.00;;;;;;;19.91;84.40;100622.16;2071795;28;20038;-72
2022/08/29 02:16:59;;;;;;;8.82;2.90;;;;;;;19.82;84.71;100632.38;2056027;28;20042;-72
2022/08/29 02:18:07;;;;;;;7.53;2.75;;;;;;;19.85;84.61;100620.78;2064269;28;20042;-72
2022/08/29 02:19:11;;;;;;;7.80;3.35;;;;;;;19.87;84.46;100621.25;2072359;28;20053;-72
2022/08/29 02:20:16;;;;;;;10.57;3.63;;;;;;;19.87;84.52;100622.03;2071418;28;20064;-72
2022/08/29 02:21:21;;;;;;;10.43;3.50;;;;;;;19.86;84.58;100619.63;2064066;28;20042;-72
2022/08/29 02:22:26;;;;;;;8.85;3.08;;;;;;;19.84;84.35;100632.84;2071467;28;20041;-72
2022/08/29 02:23:30;;;;;;;7.38;2.80;;;;;;;19.81;84.72;100630.78;2071532;28;20037;-71
2022/08/29 02:24:32;;;;;;;7.38;3.20;;;;;;;19.84;84.59;100632.84;2063315;28;20038;-72
2022/08/29 02:25:40;;;;;;;6.13;2.90;;;;;;;19.77;84.33;100624.44;2055591;28;20035;-72
2022/08/29 02:26:48;;;;;;;9.25;3.35;;;;;;;19.71;84.62;100625.78;2064946;28;21019;-72
2022/08/29 02:27:56;;;;;;;11.70;3.17;;;;;;;19.74;84.46;100622.38;2071594;28;20072;-73
2022/08/29 02:29:04;;;;;;;13.48;3.22;;;;;;;19.79;84.47;100625.66;2070165;28;20060;-73
2022/08/29 02:30:10;;;;;;;5.45;3.10;;;;;;;19.79;84.41;100624.88;2063488;28;20049;-73
2022/08/29 02:31:15;;;;;;;12.65;3.70;;;;;;;19.79;84.43;100624.88;2049367;28;20047;-72
2022/08/29 02:32:17;;;;;;;9.50;3.22;;;;;;;19.68;84.60;100629.97;2047908;28;20098;-72
2022/08/29 02:33:22;;;;;;;8.50;2.70;;;;;;;19.66;84.86;100616.66;2047951;28;20046;-72
2022/08/29 02:34:29;;;;;;;11.48;3.28;;;;;;;19.68;84.82;100625.31;2055941;28;20039;-72
2022/08/29 02:35:32;;;;;;;10.18;2.92;;;;;;;19.72;84.59;100621.91;2065284;28;20049;-71
2022/08/29 02:36:38;;;;;;;7.88;3.50;;;;;;;19.64;84.84;100618.94;2063475;28;20045;-72
2022/08/29 02:37:40;;;;;;;10.13;3.50;;;;;;;19.67;84.73;100621.00;2048184;28;20107;-72
2022/08/29 02:38:42;;;;;;;4.95;2.90;;;;;;;19.67;84.54;100618.28;2055591;28;20501;-72
2022/08/29 02:39:44;;;;;;;7.03;3.15;;;;;;;19.73;84.46;100627.00;2063588;28;20073;-72
2022/08/29 02:40:49;;;;;;;8.02;2.75;;;;;;;19.79;84.18;100622.13;2071337;28;20572;-72
2022/08/29 02:41:52;;;;;;;10.25;3.58;;;;;;;19.79;83.96;100625.66;2071535;28;20046;-72
2022/08/29 02:42:57;;;;;;;12.75;3.15;;;;;;;19.71;83.98;100628.50;2063556;28;20046;-72
2022/08/29 02:43:59;;;;;;;6.60;3.13;;;;;;;19.66;84.16;100627.56;2064131;28;20050;-72
2022/08/29 02:45:06;;;;;;;6.40;3.58;;;;;;;19.69;84.26;100628.84;2063898;28;20417;-73
2022/08/29 02:46:19;;;;;;;9.07;2.70;;;;;;;19.64;84.29;100627.13;2071628;28;20057;-71
2022/08/29 02:47:22;;;;;;;8.73;3.13;;;;;;;19.65;84.07;100631.44;2071483;28;20045;-73
2022/08/29 02:48:25;;;;;;;7.30;3.25;;;;;;;19.63;84.34;100633.66;2071619;28;20060;-72
2022/08/29 02:49:27;;;;;;;7.13;2.85;;;;;;;19.66;84.39;100633.03;2063378;28;20034;-72
2022/08/29 02:50:29;;;;;;;6.07;3.00;;;;;;;19.65;84.11;100628.72;2057220;28;20565;-72
2022/08/29 02:51:33;;;;;;;9.95;3.28;;;;;;;19.65;84.05;100634.16;2071354;28;20134;-72
2022/08/29 02:52:39;;;;;;;12.18;3.42;;;;;;;19.60;83.98;100634.34;2070598;28;20872;-72
2022/08/29 02:53:45;;;;;;;15.52;3.33;;;;;;;19.59;84.16;100631.97;2063754;28;20521;-72
2022/08/29 02:54:47;;;;;;;4.72;2.90;;;;;;;19.64;84.04;100637.22;2063890;28;20054;-72
2022/08/29 02:55:55;;;;;;;7.65;3.35;;;;;;;19.65;84.10;100636.91;2070748;28;20196;-72
2022/08/29 02:56:58;;;;;;;7.47;3.42;;;;;;;19.70;84.09;100635.09;2065225;28;20050;-72
2022/08/29 02:58:02;;;;;;;9.63;3.25;;;;;;;19.72;84.03;100636.34;2055461;28;20038;-72
2022/08/29 02:59:08;;;;;;;7.43;2.75;;;;;;;19.75;84.12;100637.59;2063440;28;20034;-73
2022/08/29 03:00:15;;;;;;;6.68;3.75;;;;;;;19.76;84.06;100642.69;2055008;28;20050;-73
2022/08/29 03:01:19;;;;;;;6.85;2.88;;;;;;;19.76;83.92;100636.47;2047648;28;20047;-73
2022/08/29 03:02:24;;;;;;;8.88;3.40;;;;;;;19.76;83.92;100641.91;2056164;28;20115;-72
2022/08/29 03:03:31;;;;;;;7.70;3.10;;;;;;;19.76;83.88;100637.25;2064064;28;20057;-71
2022/08/29 03:04:35;;;;;;;8.75;3.05;;;;;;;19.74;83.56;100636.81;2064212;28;20034;-72
2022/08/29 03:05:41;;;;;;;6.65;3.05;;;;;;;19.79;83.71;100635.78;2063275;28;20041;-72
2022/08/29 03:06:45;;;;;;;8.32;3.03;;;;;;;19.78;83.70;100631.47;2065254;28;20059;-72
2022/08/29 03:07:51;;;;;;;7.25;2.90;;;;;;;19.79;83.47;100630.31;2072898;28;20034;-72
2022/08/29 03:08:56;;;;;;;6.00;3.30;;;;;;;19.75;83.57;100641.13;2066062;28;20046;-73
2022/08/29 03:09:59;;;;;;;8.80;3.95;;;;;;;19.67;84.00;100622.91;2064742;28;20612;-72
2022/08/29 03:11:07;;;;;;;7.18;2.70;;;;;;;19.68;84.10;100635.44;2073703;28;20061;-72
2022/08/29 03:12:09;;;;;;;8.15;3.28;;;;;;;19.75;84.00;100623.97;2073206;28;20037;-73
2022/08/29 03:13:11;;;;;;;5.72;3.20;;;;;;;19.75;83.73;100630.22;2073163;28;20038;-72
2022/08/29 03:14:13;;;;;;;6.25;2.78;;;;;;;19.76;83.83;100626.34;2065229;28;20509;-72
2022/08/29 03:15:24;;;;;;;5.82;2.63;;;;;;;19.79;83.59;100622.13;2073082;28;20048;-72
2022/08/29 03:16:26;;;;;;;8.80;3.60;;;;;;;19.79;83.43;100625.66;2073223;28;20034;-72
2022/08/29 03:17:29;;;;;;;5.95;3.15;;;;;;;19.76;83.46;100623.59;2065229;28;20038;-71
2022/08/29 03:18:32;;;;;;;6.55;3.22;;;;;;;19.71;83.91;100623.06;2069393;28;20536;-71
2022/08/29 03:19:34;;;;;;;9.07;4.00;;;;;;;19.71;83.76;100623.06;2064970;28;20505;-72
2022/08/29 03:20:37;;;;;;;8.25;3.65;;;;;;;19.68;83.66;100617.13;2064983;28;20387;-72
2022/08/29 03:21:40;;;;;;;10.07;3.47;;;;;;;19.70;83.81;100622.22;2056889;28;20514;-71
2022/08/29 03:22:42;;;;;;;8.52;3.13;;;;;;;19.71;83.63;100621.13;2049482;28;20043;-72
2022/08/29 03:23:44;;;;;;;11.52;3.50;;;;;;;19.73;83.61;100615.31;2049044;28;20046;-71
2022/08/29 03:24:47;;;;;;;7.28;2.97;;;;;;;19.75;83.38;100624.75;2049362;28;20047;-72
2022/08/29 03:25:49;;;;;;;7.40;2.75;;;;;;;19.77;83.44;100629.88;2057184;28;20127;-72
2022/08/29 03:26:51;;;;;;;8.90;2.90;;;;;;;19.76;83.52;100620.09;2065112;28;20057;-72
2022/08/29 03:27:52;;;;;;;8.63;3.25;;;;;;;19.77;83.17;100627.16;2069643;28;20038;-72
2022/08/29 03:28:56;;;;;;;8.82;3.20;;;;;;;19.79;83.24;100630.31;2064828;28;20402;-72
2022/08/29 03:30:13;;;;;;;7.50;2.97;;;;;;;19.76;83.40;100626.34;2073232;28;20042;-72
2022/08/29 03:31:19;;;;;;;9.45;3.00;;;;;;;19.77;83.08;100627.16;2073026;28;20045;-71
2022/08/29 03:32:21;;;;;;;8.45;2.85;;;;;;;19.77;83.18;100630.69;2073245;28;20576;-72
2022/08/29 03:33:28;;;;;;;7.78;2.83;;;;;;;19.74;82.98;100633.28;2073689;28;20378;-71
2022/08/29 03:34:35;;;;;;;7.00;3.13;;;;;;;19.75;83.14;100638.41;2073815;28;20044;-72
2022/08/29 03:35:39;;;;;;;8.55;3.30;;;;;;;19.67;83.08;100634.63;2073050;28;20033;-73
2022/08/29 03:36:45;;;;;;;7.72;3.10;;;;;;;19.66;83.32;100638.47;2072218;28;20062;-72
2022/08/29 03:37:47;;;;;;;7.82;3.17;;;;;;;19.68;83.22;100636.22;2074397;28;20041;-72
2022/08/29 03:38:51;;;;;;;8.00;3.35;;;;;;;19.68;83.36;100638.94;2080830;28;20037;-72
2022/08/29 03:39:53;;;;;;;5.05;3.00;;;;;;;19.72;83.04;100638.28;2065054;28;20049;-72
2022/08/29 03:40:58;;;;;;;10.02;3.08;;;;;;;19.68;83.07;100632.69;2065449;28;20069;-72
2022/08/29 03:42:02;;;;;;;6.18;3.10;;;;;;;19.68;83.19;100636.22;2072984;28;20555;-72
2022/08/29 03:43:04;;;;;;;7.43;2.92;;;;;;;19.66;83.37;100635.75;2081112;28;20037;-72
2022/08/29 03:44:11;;;;;;;8.70;3.30;;;;;;;19.56;83.70;100636.16;2056850;28;20043;-72
2022/08/29 03:45:16;;;;;;;8.10;3.38;;;;;;;19.62;83.30;100634.03;2058394;28;20049;-72
2022/08/29 03:46:21;;;;;;;7.00;3.47;;;;;;;19.60;83.48;100634.34;2064556;28;20105;-72
2022/08/29 03:47:26;;;;;;;7.18;3.90;;;;;;;19.58;84.02;100639.34;2064975;28;20038;-72
2022/08/29 03:48:28;;;;;;;9.18;3.20;;;;;;;19.56;84.13;100633.44;2064867;28;20038;-71
2022/08/29 03:49:35;;;;;;;7.93;3.35;;;;;;;19.60;84.23;100637.06;2049072;28;20050;-71
2022/08/29 03:50:39;;;;;;;8.98;3.17;;;;;;;19.62;83.97;100634.03;2042109;28;20042;-70
2022/08/29 03:51:44;;;;;;;9.65;3.65;;;;;;;19.61;84.15;100638.69;2057490;28;20391;-71
2022/08/29 03:52:46;;;;;;;8.00;3.10;;;;;;;19.61;83.92;100640.63;2086988;28;20033;-71
2022/08/29 03:53:50;;;;;;;5.68;3.10;;;;;;;19.56;84.04;100638.09;2080584;28;20076;-72
2022/08/29 03:54:57;;;;;;;7.53;2.75;;;;;;;19.55;84.19;100642.75;2070127;28;20409;-72
2022/08/29 03:55:59;;;;;;;6.88;3.30;;;;;;;19.50;84.13;100639.44;2065474;28;20053;-72
2022/08/29 03:57:04;;;;;;;6.35;2.75;;;;;;;19.51;83.86;100639.09;2064864;28;20509;-72
2022/08/29 03:58:09;;;;;;;6.53;3.15;;;;;;;19.51;83.67;100649.22;2057582;28;20055;-72
2022/08/29 03:59:11;;;;;;;8.65;3.25;;;;;;;19.54;83.69;100637.63;2049290;28;20066;-72
2022/08/29 04:00:15;;;;;;;7.53;2.83;;;;;;;19.56;83.57;100644.34;2056529;28;20042;-72
2022/08/29 04:01:18;;;;;;;8.50;2.70;;;;;;;19.48;83.64;100642.50;2060314;28;20038;-73
2022/08/29 04:02:20;;;;;;;10.13;3.13;;;;;;;19.46;83.61;100644.78;2073030;28;20423;-72
2022/08/29 04:03:29;;;;;;;4.65;2.83;;;;;;;19.51;83.48;100647.28;2072887;28;20030;-73
2022/08/29 04:05:54;;;;;;;7.28;3.25;;;;;;;19.53;83.42;100641.50;2078763;28;20041;-73
2022/08/29 04:06:56;;;;;;;8.27;3.10;;;;;;;19.57;83.52;100642.41;2064596;28;20038;-73
2022/08/29 04:08:00;;;;;;;9.55;3.60;;;;;;;19.55;83.59;100645.47;2056581;28;20047;-72
2022/08/29 04:09:04;;;;;;;4.38;3.13;;;;;;;19.56;83.73;100646.28;2072590;28;20030;-72
2022/08/29 04:10:13;;;;;;;7.82;3.40;;;;;;;19.54;83.58;100646.59;2072838;28;20049;-73
2022/08/29 04:11:16;;;;;;;8.23;3.10;;;;;;;19.57;83.54;100645.13;2072742;28;20040;-72
2022/08/29 04:12:19;;;;;;;10.88;3.40;;;;;;;19.54;83.61;100649.31;2072770;28;20050;-72
2022/08/29 04:13:21;;;;;;;7.72;3.53;;;;;;;19.55;83.50;100648.22;2064874;28;20760;-73
2022/08/29 04:14:24;;;;;;;10.10;3.53;;;;;;;19.56;83.58;100651.72;2072994;28;20528;-72
2022/08/29 04:15:29;;;;;;;8.73;3.10;;;;;;;19.53;83.77;100645.00;2072478;28;20041;-72
2022/08/29 04:16:37;;;;;;;6.88;2.80;;;;;;;19.53;83.61;100645.00;2066175;28;20042;-72
2022/08/29 04:17:40;;;;;;;6.40;2.80;;;;;;;19.52;83.52;100643.44;2072530;28;20045;-72
2022/08/29 04:18:47;;;;;;;6.15;3.55;;;;;;;19.53;83.26;100646.94;2063985;28;20050;-73
2022/08/29 04:19:53;;;;;;;6.70;3.10;;;;;;;19.50;83.55;100642.97;2065473;28;20073;-72
2022/08/29 04:21:01;;;;;;;5.40;3.17;;;;;;;19.53;83.54;100642.28;2072790;28;20050;-73
2022/08/29 04:22:06;;;;;;;7.18;3.08;;;;;;;19.57;83.23;100651.38;2072421;28;20520;-74
2022/08/29 04:23:16;;;;;;;6.25;2.92;;;;;;;19.54;83.09;100640.34;2073256;28;20061;-74
2022/08/29 04:24:22;;;;;;;7.22;2.97;;;;;;;19.60;83.03;100645.25;2072472;28;20034;-72
2022/08/29 04:25:26;;;;;;;6.00;2.85;;;;;;;19.61;82.97;100641.41;2064058;28;20038;-72
2022/08/29 04:26:29;;;;;;;6.72;3.13;;;;;;;19.58;83.03;100635.84;2064351;28;20046;-72
2022/08/29 04:27:31;;;;;;;5.60;3.00;;;;;;;19.57;83.19;100637.75;2056509;28;20038;-71
2022/08/29 04:28:34;;;;;;;5.22;3.00;;;;;;;19.55;83.31;100641.97;2072278;28;20049;-72
2022/08/29 04:29:37;;;;;;;9.23;3.35;;;;;;;19.56;83.21;100646.28;2072272;28;20041;-72
2022/08/29 04:30:39;;;;;;;9.82;2.92;;;;;;;19.57;83.27;100645.94;2064615;28;20050;-71
2022/08/29 04:31:43;;;;;;;9.20;3.10;;;;;;;19.62;83.11;100642.19;2072302;28;20034;-71
2022/08/29 04:32:48;;;;;;;8.35;2.90;;;;;;;19.59;83.04;100642.88;2064255;28;20042;-71
2022/08/29 04:33:50;;;;;;;7.57;3.38;;;;;;;19.60;83.13;100644.47;2064760;28;20077;-71
2022/08/29 04:34:56;;;;;;;10.38;3.47;;;;;;;19.57;83.19;100635.00;2072406;28;20531;-71
2022/08/29 04:35:58;;;;;;;6.85;3.40;;;;;;;19.59;83.17;100638.22;2064814;28;20049;-70
2022/08/29 04:37:01;;;;;;;9.40;3.40;;;;;;;19.55;83.28;100637.31;2064364;28;20034;-71
2022/08/29 04:38:02;;;;;;;9.20;3.17;;;;;;;19.58;83.28;100646.75;2063783;28;20123;-71
2022/08/29 04:39:11;;;;;;;8.70;3.45;;;;;;;19.61;83.42;100643.34;2072340;28;20429;-73
2022/08/29 04:40:18;;;;;;;11.00;3.95;;;;;;;19.59;83.38;100643.66;2073358;28;20041;-73
2022/08/29 04:41:23;;;;;;;7.57;3.20;;;;;;;19.54;83.40;100640.34;2072174;28;20041;-74
2022/08/29 04:42:24;;;;;;;10.23;3.63;;;;;;;19.55;83.55;100631.84;2055195;28;20038;-73
2022/08/29 04:43:27;;;;;;;10.57;3.30;;;;;;;19.44;84.28;100633.41;2056468;28;20050;-74
2022/08/29 04:44:33;;;;;;;7.38;3.10;;;;;;;19.46;84.00;100639.31;2065138;28;20034;-73
2022/08/29 04:45:43;;;;;;;8.25;3.30;;;;;;;19.41;84.17;100639.53;2064050;28;20474;-73
2022/08/29 04:46:46;;;;;;;11.40;3.22;;;;;;;19.38;84.66;100643.72;2063148;28;20050;-72
2022/08/29 04:47:49;;;;;;;10.18;3.30;;;;;;;19.36;84.69;100643.28;2055606;28;20058;-70
2022/08/29 04:48:52;;;;;;;6.38;3.25;;;;;;;19.37;84.59;100633.94;2063067;28;20466;-71
2022/08/29 04:49:57;;;;;;;10.15;4.28;;;;;;;19.39;84.57;100642.59;2063045;28;20513;-70
2022/08/29 04:51:01;;;;;;;11.23;3.67;;;;;;;19.37;84.59;100642.13;2062645;28;20050;-70
2022/08/29 04:52:06;;;;;;;9.70;3.53;;;;;;;19.37;84.89;100641.34;2054754;28;20050;-70
2022/08/29 04:53:11;;;;;;;8.27;3.60;;;;;;;19.38;84.83;100637.47;2061910;28;20053;-69
2022/08/29 04:54:13;;;;;;;8.43;3.67;;;;;;;19.39;84.79;100639.06;2070796;28;20042;-70
2022/08/29 04:55:23;;;;;;;7.43;3.70;;;;;;;19.33;85.32;100638.50;2053764;28;20043;-70
2022/08/29 04:56:28;;;;;;;11.90;4.32;;;;;;;19.34;85.40;100642.78;2049207;28;20042;-70
2022/08/29 04:57:31;;;;;;;7.95;3.42;;;;;;;19.41;84.98;100636.78;2069463;28;20046;-69
2022/08/29 04:58:37;;;;;;;8.68;3.13;;;;;;;19.44;84.73;100641.56;2071157;28;20050;-69
2022/08/29 04:59:42;;;;;;;7.07;3.42;;;;;;;19.39;84.91;100644.53;2055362;28;20046;-71
2022/08/29 05:00:47;;;;;;;12.70;3.63;;;;;;;19.44;84.87;100647.03;2063702;28;20062;-71
2022/08/29 05:01:53;;;;;;;8.20;3.67;;;;;;;19.42;84.85;100643.84;2071789;28;20053;-71
2022/08/29 05:02:56;;;;;;;6.80;3.38;;;;;;;19.42;84.89;100654.78;2062789;28;20054;-70
2022/08/29 05:04:04;;;;;;;8.10;3.78;;;;;;;19.34;85.10;100648.25;2056064;28;20050;-69
2022/08/29 05:05:09;;;;;;;9.38;3.60;;;;;;;19.34;85.20;100642.00;2055121;28;20045;-69